createdAt,value
2023-01-23T00:01:35.381Z,74.40
2023-01-23T00:04:05.410Z,76.40
2023-01-23T00:06:33.118Z,77.29
2023-01-23T00:09:01.654Z,77.29
2023-01-23T00:11:30.543Z,77.27
2023-01-23T00:13:59.250Z,77.40
2023-01-23T00:16:30.735Z,74.55
2023-01-23T00:18:58.824Z,74.40
2023-01-23T00:21:28.147Z,74.86
2023-01-23T00:23:59.032Z,73.23
2023-01-23T00:26:29.608Z,73.89
2023-01-23T00:28:57.547Z,72.40
2023-01-23T00:31:28.114Z,71.74
2023-01-23T00:33:58.594Z,70.05
2023-01-23T00:36:40.273Z,69.69
2023-01-23T00:39:13.549Z,69.96
2023-01-23T00:41:45.699Z,69.84
2023-01-23T00:44:13.875Z,69.03
2023-01-23T00:46:41.619Z,68.56
2023-01-23T00:49:09.869Z,69.54
2023-01-23T00:51:37.756Z,69.39
2023-01-23T00:54:05.892Z,70.25
2023-01-23T00:56:33.420Z,70.27
2023-01-23T00:59:00.983Z,69.90
2023-01-23T01:01:31.610Z,71.34
2023-01-23T01:04:00.900Z,71.61
2023-01-23T01:06:30.297Z,69.89
2023-01-23T01:08:59.279Z,69.02
2023-01-23T01:11:27.039Z,68.65
2023-01-23T01:13:54.944Z,67.76
2023-01-23T01:16:24.422Z,68.77
2023-01-23T01:18:52.438Z,68.27
2023-01-23T01:21:21.051Z,68.23
2023-01-23T01:23:48.867Z,68.51
2023-01-23T01:26:16.926Z,69.08
2023-01-23T01:28:44.657Z,66.55
2023-01-23T01:31:15.332Z,67.50
2023-01-23T01:33:44.078Z,67.70
2023-01-23T01:36:14.667Z,67.26
2023-01-23T01:38:43.010Z,67.72
2023-01-23T01:41:12.239Z,67.42
2023-01-23T01:43:41.390Z,69.45
2023-01-23T01:46:18.428Z,68.34
2023-01-23T01:49:04.458Z,68.29
2023-01-23T01:51:34.661Z,68.01
2023-01-23T01:54:14.538Z,68.48
2023-01-23T01:56:49.199Z,70.54
2023-01-23T01:59:20.399Z,71.44
2023-01-23T02:01:51.880Z,71.56
2023-01-23T02:04:19.762Z,71.14
2023-01-23T02:06:47.635Z,72.03
2023-01-23T02:09:25.318Z,70.13
2023-01-23T02:11:54.271Z,72.03
2023-01-23T02:14:25.902Z,74.14
2023-01-23T02:16:59.784Z,75.53
2023-01-23T02:20:00.784Z,76.79
2023-01-23T02:23:08.856Z,76.95
2023-01-23T02:25:45.884Z,76.82
2023-01-23T02:28:17.273Z,78.32
2023-01-23T02:30:50.830Z,81.03
2023-01-23T02:33:21.100Z,81.97
2023-01-23T02:35:50.817Z,82.57
2023-01-23T02:38:22.694Z,82.25
2023-01-23T02:40:52.766Z,83.64
2023-01-23T02:43:28.334Z,82.96
2023-01-23T02:46:09.742Z,84.51
2023-01-23T02:48:40.153Z,84.52
2023-01-23T02:51:08.003Z,83.87
2023-01-23T02:53:35.651Z,83.16
2023-01-23T02:56:03.822Z,83.46
2023-01-23T02:58:50.084Z,84.91
2023-01-23T03:01:17.650Z,84.90
2023-01-23T03:03:46.171Z,84.07
2023-01-23T03:06:14.805Z,84.87
2023-01-23T03:08:47.910Z,83.92
2023-01-23T03:11:18.056Z,83.77
2023-01-23T03:13:47.857Z,83.54
2023-01-23T03:16:15.727Z,79.94
2023-01-23T03:18:53.990Z,80.30
2023-01-23T03:21:22.610Z,68.86
2023-01-23T03:23:50.650Z,69.51
2023-01-23T03:26:18.794Z,70.71
2023-01-23T03:29:06.888Z,71.22
2023-01-23T03:31:34.800Z,72.02
2023-01-23T03:34:02.989Z,70.80
2023-01-23T03:36:37.400Z,69.12
2023-01-23T03:39:25.981Z,70.08
2023-01-23T03:41:54.999Z,69.79
2023-01-23T03:44:24.321Z,74.10
2023-01-23T03:46:52.837Z,76.24
2023-01-23T03:49:20.933Z,73.30
2023-01-23T03:51:57.148Z,77.11
2023-01-23T03:54:24.959Z,74.00
2023-01-23T03:56:54.519Z,73.83
2023-01-23T03:59:50.933Z,77.80
2023-01-23T04:02:21.357Z,74.67
2023-01-23T04:04:48.862Z,76.09
2023-01-23T04:07:16.625Z,80.53
2023-01-23T04:09:45.408Z,82.57
2023-01-23T04:12:13.450Z,79.10
2023-01-23T04:14:44.352Z,80.28
2023-01-23T04:17:14.199Z,81.04
2023-01-23T04:19:42.020Z,82.32
2023-01-23T04:22:10.487Z,82.75
2023-01-23T04:24:44.477Z,82.57
2023-01-23T04:27:13.175Z,77.68
2023-01-23T04:29:40.872Z,76.71
2023-01-23T04:32:10.167Z,78.76
2023-01-23T04:34:43.858Z,77.46
2023-01-23T04:37:12.026Z,76.39
2023-01-23T04:39:40.508Z,74.80
2023-01-23T04:42:08.516Z,73.17
2023-01-23T04:45:00.506Z,72.04
2023-01-23T04:47:34.659Z,68.74
2023-01-23T04:50:05.797Z,66.33
2023-01-23T04:52:35.254Z,66.42
2023-01-23T04:55:04.092Z,66.23
2023-01-23T04:57:32.427Z,65.31
2023-01-23T05:00:17.089Z,68.14
2023-01-23T05:02:47.228Z,69.17
2023-01-23T05:05:17.342Z,67.65
2023-01-23T05:07:45.017Z,72.90
2023-01-23T05:10:16.719Z,71.99
2023-01-23T05:12:44.406Z,71.74
2023-01-23T05:15:12.179Z,73.60
2023-01-23T05:17:42.443Z,72.51
2023-01-23T05:20:11.818Z,83.73
2023-01-23T05:22:52.714Z,84.12
2023-01-23T05:25:26.259Z,84.19
2023-01-23T05:27:55.794Z,87.01
2023-01-23T05:30:24.292Z,87.43
2023-01-23T05:32:57.573Z,90.99
2023-01-23T05:35:25.065Z,98.61
2023-01-23T05:37:53.723Z,94.55
2023-01-23T05:40:24.873Z,96.06
2023-01-23T05:43:15.368Z,96.49
2023-01-23T05:46:18.887Z,96.09
2023-01-23T05:48:51.745Z,100.00
2023-01-23T05:51:23.351Z,100.00
2023-01-23T05:53:51.745Z,100.00
2023-01-23T05:56:19.479Z,100.00
2023-01-23T05:59:06.955Z,100.00
2023-01-23T06:01:45.040Z,100.00
2023-01-23T06:04:31.603Z,100.00
2023-01-23T06:07:20.714Z,100.00
2023-01-23T06:09:52.772Z,100.00
2023-01-23T06:12:20.771Z,100.00
2023-01-23T06:14:48.367Z,100.00
2023-01-23T06:17:16.085Z,100.00
2023-01-23T06:19:44.209Z,100.00
2023-01-23T06:22:12.521Z,100.00
2023-01-23T06:24:58.356Z,100.00
2023-01-23T06:27:26.366Z,100.00
2023-01-23T06:29:54.298Z,100.00
2023-01-23T06:32:23.596Z,100.00
2023-01-23T06:34:52.182Z,100.00
2023-01-23T06:37:20.119Z,100.00
2023-01-23T06:39:47.721Z,100.00
2023-01-23T06:42:17.291Z,100.00
2023-01-23T06:44:48.826Z,100.00
2023-01-23T06:47:16.737Z,100.00
2023-01-23T06:49:46.227Z,100.00
2023-01-23T06:52:13.792Z,100.00
2023-01-23T06:54:43.716Z,100.00
2023-01-23T06:57:13.077Z,100.00
2023-01-23T06:59:41.233Z,100.00
2023-01-23T07:02:11.987Z,100.00
2023-01-23T07:04:57.426Z,100.00
2023-01-23T07:07:25.978Z,100.00
2023-01-23T07:09:54.581Z,100.00
2023-01-23T07:12:25.499Z,100.00
2023-01-23T07:14:53.104Z,100.00
2023-01-23T07:17:29.016Z,100.00
2023-01-23T07:19:56.535Z,100.00
2023-01-23T07:22:24.568Z,100.00
2023-01-23T07:24:52.462Z,100.00
2023-01-23T07:27:20.717Z,100.00
2023-01-23T07:29:48.215Z,100.00
2023-01-23T07:32:15.811Z,100.00
2023-01-23T07:34:43.343Z,100.00
2023-01-23T07:37:11.255Z,100.00
2023-01-23T07:39:38.754Z,100.00
2023-01-23T07:42:06.697Z,100.00
2023-01-23T07:44:34.939Z,100.00
2023-01-23T07:47:02.731Z,100.00
2023-01-23T07:49:30.804Z,100.00
2023-01-23T07:51:58.710Z,100.00
2023-01-23T07:54:26.161Z,100.00
2023-01-23T07:56:54.123Z,100.00
2023-01-23T07:59:22.399Z,100.00
2023-01-23T08:01:51.397Z,100.00
2023-01-23T08:04:19.938Z,100.00
2023-01-23T08:06:47.906Z,100.00
2023-01-23T08:09:15.570Z,100.00
2023-01-23T08:11:43.017Z,100.00
2023-01-23T08:14:12.018Z,100.00
2023-01-23T08:16:39.587Z,100.00
2023-01-23T08:19:11.206Z,100.00
2023-01-23T08:21:39.702Z,100.00
2023-01-23T08:24:07.737Z,100.00
2023-01-23T08:26:35.162Z,100.00
2023-01-23T08:29:02.717Z,100.00
2023-01-23T08:31:30.808Z,100.00
2023-01-23T08:33:58.439Z,100.00
2023-01-23T08:36:26.233Z,100.00
2023-01-23T08:38:53.816Z,100.00
2023-01-23T08:41:23.408Z,100.00
2023-01-23T08:43:51.468Z,100.00
2023-01-23T08:46:19.120Z,100.00
2023-01-23T08:48:46.782Z,100.00
2023-01-23T08:51:14.780Z,100.00
2023-01-23T08:53:42.400Z,100.00
2023-01-23T08:56:16.994Z,100.00
2023-01-23T08:58:45.683Z,100.00
2023-01-23T09:01:15.580Z,100.00
2023-01-23T09:03:43.736Z,100.00
2023-01-23T09:06:17.957Z,100.00
2023-01-23T09:08:45.901Z,100.00
2023-01-23T09:11:14.265Z,100.00
2023-01-23T09:13:42.409Z,100.00
2023-01-23T09:16:10.528Z,100.00
2023-01-23T09:18:38.898Z,100.00
2023-01-23T09:21:09.565Z,100.00
2023-01-23T09:23:37.434Z,100.00
2023-01-23T09:26:08.030Z,100.00
2023-01-23T09:28:36.520Z,100.00
2023-01-23T09:31:09.705Z,100.00
2023-01-23T09:33:37.827Z,100.00
2023-01-23T09:36:05.879Z,100.00
2023-01-23T09:38:34.416Z,100.00
2023-01-23T09:41:19.493Z,100.00
2023-01-23T09:43:56.412Z,100.00
2023-01-23T09:46:38.753Z,100.00
2023-01-23T09:49:22.130Z,100.00
2023-01-23T09:52:19.961Z,100.00
2023-01-23T09:54:55.460Z,100.00
2023-01-23T09:57:29.716Z,100.00
2023-01-23T10:00:20.683Z,100.00
2023-01-23T10:02:48.692Z,100.00
2023-01-23T10:05:19.260Z,100.00
2023-01-23T10:07:56.645Z,100.00
2023-01-23T10:10:45.824Z,100.00
2023-01-23T10:13:19.195Z,100.00
2023-01-23T10:16:19.413Z,100.00
2023-01-23T10:19:02.848Z,100.00
2023-01-23T10:21:54.687Z,100.00
2023-01-23T10:24:45.747Z,100.00
2023-01-23T10:27:47.759Z,100.00
2023-01-23T10:30:29.237Z,100.00
2023-01-23T10:33:10.186Z,100.00
2023-01-23T10:36:03.535Z,100.00
2023-01-23T10:38:57.833Z,100.00
2023-01-23T10:41:25.389Z,100.00
2023-01-23T10:43:54.786Z,100.00
2023-01-23T10:46:30.685Z,100.00
2023-01-23T10:49:02.542Z,100.00
2023-01-23T10:51:39.003Z,100.00
2023-01-23T10:54:11.326Z,100.00
2023-01-23T10:56:58.200Z,100.00
2023-01-23T10:59:34.493Z,100.00
2023-01-23T11:02:14.283Z,100.00
2023-01-23T11:04:43.729Z,100.00
2023-01-23T11:07:38.045Z,100.00
2023-01-23T11:10:08.604Z,100.00
2023-01-23T11:12:47.740Z,100.00
2023-01-23T11:15:22.831Z,100.00
2023-01-23T11:17:52.685Z,100.00
2023-01-23T11:20:38.380Z,100.00
2023-01-23T11:23:08.750Z,100.00
2023-01-23T11:25:43.932Z,100.00
2023-01-23T11:28:24.874Z,100.00
2023-01-23T11:31:12.369Z,100.00
2023-01-23T11:33:41.965Z,100.00
2023-01-23T11:36:18.803Z,100.00
2023-01-23T11:39:05.031Z,100.00
2023-01-23T11:41:36.310Z,100.00
2023-01-23T11:44:11.318Z,100.00
2023-01-23T11:47:02.042Z,100.00
2023-01-23T11:50:11.744Z,100.00
2023-01-23T11:53:00.975Z,100.00
2023-01-23T11:55:35.003Z,100.00
2023-01-23T11:58:26.536Z,100.00
2023-01-23T12:01:06.266Z,100.00
2023-01-23T12:03:37.061Z,100.00
2023-01-23T12:06:39.828Z,100.00
2023-01-23T12:09:20.217Z,100.00
2023-01-23T12:12:29.415Z,100.00
2023-01-23T12:15:23.218Z,100.00
2023-01-23T12:20:43.228Z,100.00
2023-01-23T12:23:30.432Z,100.00
2023-01-23T12:26:26.282Z,100.00
2023-01-23T12:29:22.328Z,100.00
2023-01-23T12:32:16.001Z,100.00
2023-01-23T12:35:12.397Z,100.00
2023-01-23T12:38:11.721Z,100.00
2023-01-23T12:40:53.311Z,100.00
2023-01-23T12:43:33.868Z,100.00
2023-01-23T12:46:09.480Z,100.00
2023-01-23T12:48:48.340Z,100.00
2023-01-23T12:51:23.467Z,100.00
2023-01-23T12:53:57.480Z,100.00
2023-01-23T12:56:30.994Z,100.00
2023-01-23T12:59:31.996Z,100.00
2023-01-23T13:02:12.077Z,100.00
2023-01-23T13:05:02.563Z,99.99
2023-01-23T13:07:55.748Z,99.83
2023-01-23T13:10:24.286Z,98.00
2023-01-23T13:12:57.471Z,97.31
2023-01-23T13:15:40.398Z,99.02
2023-01-23T13:18:24.934Z,98.19
2023-01-23T13:21:16.964Z,97.99
2023-01-23T13:23:45.357Z,97.54
2023-01-23T13:26:15.800Z,98.27
2023-01-23T13:28:49.160Z,98.17
2023-01-23T13:31:37.160Z,97.85
2023-01-23T13:34:17.179Z,98.32
2023-01-23T13:36:49.744Z,100.00
2023-01-23T13:39:17.684Z,99.25
2023-01-23T13:41:46.090Z,99.56
2023-01-23T13:44:40.382Z,99.80
2023-01-23T14:22:46.591Z,83.49
2023-01-23T14:25:18.548Z,86.52
2023-01-23T14:27:54.492Z,86.64
2023-01-23T14:30:26.798Z,87.65
2023-01-23T14:32:55.507Z,88.54
2023-01-23T14:35:27.690Z,86.48
2023-01-23T14:37:59.235Z,90.24
2023-01-23T14:40:33.168Z,89.95
2023-01-23T14:43:08.046Z,91.67
2023-01-23T14:45:37.722Z,94.73
2023-01-23T14:48:14.941Z,94.79
2023-01-23T14:50:43.198Z,94.76
2023-01-23T14:53:16.612Z,93.69
2023-01-23T14:55:49.929Z,95.33
2023-01-23T14:58:25.571Z,94.57
2023-01-23T15:00:54.060Z,93.79
2023-01-23T15:03:54.583Z,94.58
2023-01-23T15:06:24.030Z,94.70
2023-01-23T15:08:52.315Z,95.28
2023-01-23T15:11:28.235Z,95.47
2023-01-23T15:14:01.513Z,95.81
2023-01-23T15:16:36.193Z,96.04
2023-01-23T15:19:08.446Z,95.24
2023-01-23T15:21:38.126Z,95.48
2023-01-23T15:24:16.667Z,95.44
2023-01-23T15:26:57.151Z,95.12
2023-01-23T15:29:24.761Z,94.88
2023-01-23T15:31:54.230Z,93.49
2023-01-23T15:34:34.234Z,92.11
2023-01-23T15:37:14.013Z,92.48
2023-01-23T15:40:02.788Z,94.11
2023-01-23T15:42:33.899Z,93.56
2023-01-23T15:45:03.792Z,99.42
2023-01-23T15:47:32.637Z,100.00
2023-01-23T15:50:01.810Z,100.00
2023-01-23T15:52:31.940Z,100.00
2023-01-23T15:55:03.224Z,100.00
2023-01-23T15:57:31.058Z,100.00
2023-01-23T16:00:00.312Z,100.00
2023-01-23T16:02:31.591Z,99.61
2023-01-23T16:05:01.949Z,98.33
2023-01-23T16:07:37.083Z,98.44
2023-01-23T16:10:16.639Z,97.73
2023-01-23T16:12:48.761Z,94.82
2023-01-23T16:15:18.923Z,94.63
2023-01-23T16:17:47.019Z,95.01
2023-01-23T16:20:20.157Z,94.87
2023-01-23T16:23:14.150Z,95.34
2023-01-23T16:25:45.712Z,95.02
2023-01-23T16:28:20.123Z,94.31
2023-01-23T16:30:48.870Z,94.04
2023-01-23T16:33:16.634Z,92.79
2023-01-23T16:35:45.370Z,92.07
2023-01-23T16:38:31.617Z,92.62
2023-01-23T16:41:01.587Z,91.77
2023-01-23T16:43:29.148Z,92.30
2023-01-23T16:45:57.725Z,92.81
2023-01-23T16:48:28.034Z,92.62
2023-01-23T16:51:03.184Z,93.58
2023-01-23T16:53:34.802Z,94.05
2023-01-23T16:56:02.967Z,96.13
2023-01-23T16:58:35.426Z,93.80
2023-01-23T17:01:09.167Z,92.38
2023-01-23T17:03:40.853Z,91.43
2023-01-23T17:06:15.826Z,91.54
2023-01-23T17:08:44.195Z,90.30
2023-01-23T17:11:24.428Z,90.78
2023-01-23T17:14:00.861Z,89.57
2023-01-23T17:16:30.036Z,90.78
2023-01-23T17:19:00.933Z,90.31
2023-01-23T17:21:34.326Z,89.74
2023-01-23T17:24:02.002Z,89.95
2023-01-23T17:26:30.039Z,90.07
2023-01-23T17:28:57.869Z,89.74
2023-01-23T17:31:28.993Z,90.39
2023-01-23T17:33:56.704Z,92.33
2023-01-23T17:36:26.327Z,97.97
2023-01-23T17:38:57.209Z,100.00
2023-01-23T17:41:25.169Z,100.00
2023-01-23T17:43:52.831Z,100.00
2023-01-23T17:46:28.413Z,100.00
2023-01-23T17:48:56.956Z,99.62
2023-01-23T17:51:25.909Z,99.26
2023-01-23T17:53:55.108Z,98.48
2023-01-23T17:56:22.862Z,97.00
2023-01-23T17:58:51.079Z,95.64
2023-01-23T18:01:25.049Z,95.30
2023-01-23T18:03:53.488Z,97.37
2023-01-23T18:06:21.396Z,98.75
2023-01-23T18:08:48.950Z,97.15
2023-01-23T18:11:22.335Z,92.92
2023-01-23T18:14:04.679Z,93.01
2023-01-23T18:16:42.585Z,91.19
2023-01-23T18:19:20.789Z,91.53
2023-01-23T18:21:51.188Z,88.92
2023-01-23T18:24:31.749Z,90.29
2023-01-23T18:27:01.096Z,90.94
2023-01-23T18:29:34.790Z,89.96
2023-01-23T18:32:15.922Z,88.43
2023-01-23T18:35:28.445Z,91.73
2023-01-23T18:38:05.095Z,90.07
2023-01-23T18:40:54.092Z,90.76
2023-01-23T18:43:41.010Z,91.14
2023-01-23T18:46:17.181Z,89.57
2023-01-23T18:48:46.389Z,89.19
2023-01-23T18:51:38.498Z,90.73
2023-01-23T18:54:24.684Z,92.32
2023-01-23T18:57:01.848Z,94.86
2023-01-23T19:00:00.891Z,95.38
2023-01-23T19:02:42.021Z,100.00
2023-01-23T19:05:19.119Z,100.00
2023-01-23T19:07:48.474Z,100.00
2023-01-23T19:10:18.740Z,100.00
2023-01-23T19:12:58.047Z,100.00
2023-01-23T19:15:37.607Z,100.00
2023-01-23T19:18:47.156Z,100.00
2023-01-23T19:21:16.948Z,100.00
2023-01-23T19:23:54.822Z,100.00
2023-01-23T19:26:23.698Z,100.00
2023-01-23T19:28:52.627Z,100.00
2023-01-23T19:31:25.619Z,100.00
2023-01-23T19:33:54.565Z,100.00
2023-01-23T19:36:23.621Z,100.00
2023-01-23T19:38:52.615Z,100.00
2023-01-23T19:41:25.709Z,100.00
2023-01-23T19:43:55.479Z,98.30
2023-01-23T19:46:30.120Z,98.15
2023-01-23T19:48:59.312Z,96.80
2023-01-23T19:51:27.647Z,95.85
2023-01-23T19:53:55.389Z,94.76
2023-01-23T19:56:23.618Z,93.36
2023-01-23T19:58:51.726Z,92.99
2023-01-23T20:01:25.802Z,92.42
2023-01-23T20:03:53.807Z,91.67
2023-01-23T20:06:21.823Z,92.89
2023-01-23T20:08:49.568Z,91.03
2023-01-23T20:11:17.392Z,94.91
2023-01-23T20:13:45.408Z,96.00
2023-01-23T20:16:14.920Z,97.02
2023-01-23T20:18:42.814Z,98.42
2023-01-23T20:21:10.509Z,98.65
2023-01-23T20:23:38.080Z,99.29
2023-01-23T20:26:05.815Z,100.00
2023-01-23T20:28:35.801Z,100.00
2023-01-23T20:31:09.090Z,100.00
2023-01-23T20:33:37.881Z,100.00
2023-01-23T20:36:06.832Z,100.00
2023-01-23T20:38:34.850Z,100.00
2023-01-23T20:41:22.833Z,100.00
2023-01-23T20:43:51.430Z,100.00
2023-01-23T20:46:19.520Z,100.00
2023-01-23T20:48:47.723Z,100.00
2023-01-23T20:51:17.042Z,100.00
2023-01-23T20:53:45.142Z,100.00
2023-01-23T20:56:15.775Z,100.00
2023-01-23T20:59:05.980Z,100.00
2023-01-23T21:01:58.285Z,100.00
2023-01-23T21:04:29.324Z,100.00
2023-01-23T21:06:57.779Z,100.00
2023-01-23T21:09:26.254Z,100.00
2023-01-23T21:11:54.210Z,100.00
2023-01-23T21:14:23.106Z,100.00
2023-01-23T21:16:50.923Z,100.00
2023-01-23T21:19:19.236Z,100.00
2023-01-23T21:21:47.069Z,100.00
2023-01-23T21:24:14.994Z,100.00
2023-01-23T21:26:43.728Z,100.00
2023-01-23T21:29:11.705Z,100.00
2023-01-23T21:31:40.399Z,100.00
2023-01-23T21:34:11.280Z,100.00
2023-01-23T21:36:40.601Z,100.00
2023-01-23T21:39:10.406Z,100.00
2023-01-23T21:41:38.060Z,100.00
2023-01-23T21:44:06.403Z,100.00
2023-01-23T21:46:34.407Z,100.00
2023-01-23T21:49:02.493Z,100.00
2023-01-23T21:51:32.297Z,100.00
2023-01-23T21:53:59.851Z,100.00
2023-01-23T21:56:27.505Z,100.00
2023-01-23T21:58:55.485Z,100.00
2023-01-23T22:01:44.698Z,100.00
2023-01-23T22:04:13.985Z,100.00
2023-01-23T22:06:43.769Z,100.00
2023-01-23T22:09:17.680Z,100.00
2023-01-23T22:11:46.578Z,100.00
2023-01-23T22:14:15.991Z,100.00
2023-01-23T22:16:51.352Z,100.00
2023-01-23T22:19:24.695Z,100.00
2023-01-23T22:21:57.248Z,100.00
2023-01-23T22:24:25.067Z,100.00
2023-01-23T22:26:52.999Z,100.00
2023-01-23T22:29:21.479Z,100.00
2023-01-23T22:31:50.533Z,100.00
2023-01-23T22:34:18.728Z,100.00
2023-01-23T22:36:46.614Z,100.00
2023-01-23T22:39:16.239Z,100.00
2023-01-23T22:41:48.082Z,100.00
2023-01-23T22:44:16.957Z,100.00
2023-01-23T22:46:45.027Z,100.00
2023-01-23T22:49:13.233Z,100.00
2023-01-23T22:51:41.234Z,100.00
2023-01-23T22:54:09.283Z,100.00
2023-01-23T22:56:37.150Z,100.00
2023-01-23T22:59:05.105Z,100.00
2023-01-23T23:01:33.368Z,100.00
2023-01-23T23:04:01.085Z,100.00
2023-01-23T23:06:28.859Z,100.00
2023-01-23T23:08:56.891Z,100.00
2023-01-23T23:11:28.278Z,100.00
2023-01-23T23:13:57.428Z,100.00
2023-01-23T23:16:29.393Z,100.00
2023-01-23T23:18:59.480Z,100.00
2023-01-23T23:21:31.785Z,100.00
2023-01-23T23:24:01.492Z,100.00
2023-01-23T23:26:31.516Z,100.00
2023-01-23T23:29:01.161Z,100.00
2023-01-23T23:31:29.682Z,100.00
2023-01-23T23:33:57.961Z,100.00
2023-01-23T23:36:26.123Z,100.00
2023-01-23T23:38:53.614Z,100.00
2023-01-23T23:41:21.330Z,100.00
2023-01-23T23:43:49.295Z,100.00
2023-01-23T23:46:17.518Z,100.00
2023-01-23T23:48:47.905Z,100.00
2023-01-23T23:51:18.636Z,100.00
2023-01-23T23:53:47.540Z,100.00
2023-01-23T23:56:26.823Z,100.00
2023-01-23T23:58:55.391Z,100.00
